createdAt,value
2023-03-31T00:01:58.021Z,64.47
2023-03-31T00:04:32.190Z,65.94
2023-03-31T00:07:00.421Z,66.12
2023-03-31T00:09:33.620Z,64.29
2023-03-31T00:12:04.994Z,61.37
2023-03-31T00:14:33.330Z,61.57
2023-03-31T00:17:02.542Z,60.16
2023-03-31T00:19:33.904Z,57.11
2023-03-31T00:22:22.797Z,57.78
2023-03-31T00:25:33.712Z,60.25
2023-03-31T00:28:01.697Z,65.03
2023-03-31T00:30:50.227Z,65.29
2023-03-31T00:33:21.332Z,64.38
2023-03-31T00:35:55.197Z,62.79
2023-03-31T00:38:23.901Z,61.81
2023-03-31T00:40:53.944Z,59.25
2023-03-31T00:44:13.093Z,58.92
2023-03-31T00:47:21.185Z,62.74
2023-03-31T00:49:51.878Z,66.48
2023-03-31T00:52:41.789Z,65.95
2023-03-31T00:55:42.091Z,63.94
2023-03-31T00:59:30.518Z,64.27
2023-03-31T01:02:03.011Z,62.24
2023-03-31T01:04:35.359Z,63.21
2023-03-31T01:07:31.136Z,63.11
2023-03-31T01:10:00.811Z,61.96
2023-03-31T01:12:33.310Z,63.12
2023-03-31T01:15:24.666Z,62.78
2023-03-31T01:18:21.264Z,62.17
2023-03-31T01:21:16.910Z,61.97
2023-03-31T01:23:59.369Z,61.81
2023-03-31T01:26:55.765Z,62.02
2023-03-31T01:30:47.642Z,60.46
2023-03-31T01:34:02.773Z,62.73
2023-03-31T01:37:30.229Z,62.83
2023-03-31T01:40:37.967Z,61.66
2023-03-31T01:44:08.630Z,62.28
2023-03-31T01:46:58.658Z,62.34
2023-03-31T01:50:08.119Z,62.40
2023-03-31T01:53:16.927Z,61.68
2023-03-31T01:57:06.333Z,61.21
2023-03-31T02:00:26.254Z,61.40
2023-03-31T02:03:32.333Z,62.48
2023-03-31T02:06:20.324Z,62.68
2023-03-31T02:09:11.416Z,62.13
2023-03-31T02:11:43.024Z,61.74
2023-03-31T02:14:12.881Z,62.70
2023-03-31T02:17:02.364Z,62.60
2023-03-31T02:19:51.751Z,61.69
2023-03-31T02:22:20.062Z,62.16
2023-03-31T02:24:49.013Z,62.71
2023-03-31T02:27:51.799Z,62.46
2023-03-31T02:30:20.285Z,62.31
2023-03-31T02:33:09.658Z,61.74
2023-03-31T02:35:41.360Z,62.03
2023-03-31T02:38:11.843Z,61.73
2023-03-31T02:40:42.912Z,61.79
2023-03-31T02:43:31.657Z,61.48
2023-03-31T02:46:00.318Z,61.05
2023-03-31T02:48:38.270Z,61.67
2023-03-31T02:51:16.528Z,60.83
2023-03-31T02:54:15.836Z,61.58
2023-03-31T02:57:09.296Z,62.66
2023-03-31T03:00:28.546Z,61.00
2023-03-31T03:03:19.756Z,62.49
2023-03-31T03:06:28.127Z,62.16
2023-03-31T03:09:52.451Z,61.99
2023-03-31T03:12:49.934Z,62.41
2023-03-31T03:15:24.533Z,61.87
2023-03-31T03:17:52.667Z,62.62
2023-03-31T03:20:24.578Z,62.09
2023-03-31T03:22:52.896Z,61.72
2023-03-31T03:25:24.438Z,62.18
2023-03-31T03:27:53.314Z,62.47
2023-03-31T03:30:21.707Z,61.22
2023-03-31T03:32:50.593Z,61.51
2023-03-31T03:35:18.773Z,62.88
2023-03-31T03:38:07.623Z,62.75
2023-03-31T03:40:36.135Z,62.45
2023-03-31T03:43:10.747Z,62.82
2023-03-31T03:45:38.963Z,61.89
2023-03-31T03:48:29.962Z,62.67
2023-03-31T03:51:01.389Z,63.49
2023-03-31T03:53:29.569Z,63.36
2023-03-31T03:55:59.499Z,62.90
2023-03-31T03:58:27.648Z,62.46
2023-03-31T04:00:57.155Z,62.58
2023-03-31T04:03:49.266Z,62.27
2023-03-31T04:06:19.980Z,63.10
2023-03-31T04:08:48.029Z,62.88
2023-03-31T04:11:19.201Z,63.25
2023-03-31T04:13:48.115Z,63.32
2023-03-31T04:16:19.648Z,63.06
2023-03-31T04:19:05.107Z,62.37
2023-03-31T04:21:35.948Z,63.79
2023-03-31T04:24:33.029Z,63.43
2023-03-31T04:27:08.084Z,63.45
2023-03-31T04:29:42.720Z,63.53
2023-03-31T04:32:15.062Z,62.62
2023-03-31T04:34:46.691Z,62.68
2023-03-31T04:37:15.176Z,63.91
2023-03-31T04:40:08.183Z,63.77
2023-03-31T04:42:36.575Z,64.17
2023-03-31T04:45:30.745Z,63.56
2023-03-31T04:48:30.556Z,63.68
2023-03-31T04:50:58.723Z,63.84
2023-03-31T04:53:30.343Z,63.09
2023-03-31T04:56:18.698Z,63.85
2023-03-31T04:58:47.071Z,63.52
2023-03-31T05:01:36.641Z,63.82
2023-03-31T05:04:25.734Z,63.77
2023-03-31T05:07:20.010Z,63.69
2023-03-31T05:09:48.242Z,62.50
2023-03-31T05:12:16.860Z,63.04
2023-03-31T05:16:02.316Z,63.46
2023-03-31T05:19:43.581Z,63.44
2023-03-31T05:23:11.287Z,63.15
2023-03-31T05:26:20.139Z,63.77
2023-03-31T05:28:52.159Z,63.69
2023-03-31T05:31:20.532Z,63.99
2023-03-31T05:33:59.110Z,63.53
2023-03-31T05:37:48.264Z,63.68
2023-03-31T05:40:57.615Z,64.09
2023-03-31T05:43:26.172Z,63.61
2023-03-31T05:45:54.538Z,63.63
2023-03-31T05:48:28.527Z,63.86
2023-03-31T05:51:02.303Z,63.67
2023-03-31T05:53:34.173Z,63.24
2023-03-31T05:56:10.295Z,63.15
2023-03-31T05:58:50.132Z,63.11
2023-03-31T06:01:53.104Z,62.94
2023-03-31T06:05:05.684Z,62.12
2023-03-31T06:08:17.169Z,62.39
2023-03-31T06:11:30.165Z,62.49
2023-03-31T06:14:39.054Z,62.84
2023-03-31T06:17:07.684Z,62.37
2023-03-31T06:19:58.880Z,62.44
2023-03-31T06:22:33.029Z,62.41
2023-03-31T06:25:01.455Z,62.50
2023-03-31T06:27:52.907Z,62.14
2023-03-31T06:30:23.508Z,61.52
2023-03-31T06:33:32.052Z,61.39
2023-03-31T06:36:01.843Z,60.62
2023-03-31T06:39:10.790Z,60.92
2023-03-31T06:41:39.410Z,60.56
2023-03-31T06:44:07.568Z,60.74
2023-03-31T06:46:46.562Z,60.61
2023-03-31T06:49:17.643Z,60.86
2023-03-31T06:51:48.524Z,60.88
2023-03-31T06:54:37.431Z,60.96
2023-03-31T06:57:14.223Z,60.96
2023-03-31T06:59:42.403Z,60.90
2023-03-31T07:02:17.286Z,60.62
2023-03-31T07:05:06.565Z,60.23
2023-03-31T07:07:55.613Z,60.11
2023-03-31T07:11:00.700Z,59.96
2023-03-31T07:13:49.687Z,59.92
2023-03-31T07:16:41.269Z,59.29
2023-03-31T07:19:15.659Z,57.47
2023-03-31T07:22:37.513Z,59.85
2023-03-31T07:25:26.404Z,62.69
2023-03-31T07:27:57.880Z,66.16
2023-03-31T07:30:26.508Z,65.04
2023-03-31T07:32:54.998Z,63.74
2023-03-31T07:35:56.813Z,62.60
2023-03-31T07:38:57.060Z,61.84
2023-03-31T07:41:45.872Z,60.97
2023-03-31T07:44:23.510Z,59.72
2023-03-31T07:46:51.840Z,58.85
2023-03-31T07:49:51.764Z,58.74
2023-03-31T07:53:03.513Z,61.22
2023-03-31T07:55:52.539Z,64.85
2023-03-31T07:58:23.911Z,63.73
2023-03-31T08:01:18.951Z,62.30
2023-03-31T08:03:59.312Z,61.42
2023-03-31T08:07:09.345Z,60.96
2023-03-31T08:09:50.996Z,60.11
2023-03-31T08:12:42.850Z,60.02
2023-03-31T08:16:05.199Z,59.90
2023-03-31T08:19:13.244Z,58.85
2023-03-31T08:22:24.134Z,59.57
2023-03-31T08:24:52.327Z,62.09
2023-03-31T08:27:51.275Z,63.57
2023-03-31T08:30:20.608Z,62.24
2023-03-31T08:34:00.958Z,60.75
2023-03-31T08:36:57.284Z,59.56
2023-03-31T08:39:25.832Z,58.16
2023-03-31T08:42:43.591Z,60.26
2023-03-31T08:45:57.091Z,62.95
2023-03-31T08:49:07.047Z,61.94
2023-03-31T08:51:59.533Z,60.88
2023-03-31T08:54:56.982Z,59.62
2023-03-31T08:58:51.907Z,57.60
2023-03-31T09:01:52.178Z,58.34
2023-03-31T09:05:21.380Z,63.42
2023-03-31T09:08:24.952Z,62.79
2023-03-31T09:11:20.175Z,61.08
2023-03-31T09:14:52.546Z,59.65
2023-03-31T09:18:15.858Z,58.05
2023-03-31T09:21:24.272Z,58.95
2023-03-31T09:25:08.898Z,58.89
2023-03-31T09:27:56.279Z,63.30
2023-03-31T09:30:43.651Z,64.75
2023-03-31T09:34:15.294Z,63.22
2023-03-31T09:36:47.000Z,59.96
2023-03-31T09:39:35.888Z,57.22
2023-03-31T09:42:54.773Z,57.64
2023-03-31T09:46:43.654Z,58.50
2023-03-31T09:50:06.453Z,61.01
2023-03-31T09:53:24.480Z,62.63
2023-03-31T09:56:36.134Z,59.41
2023-03-31T10:00:23.071Z,58.03
2023-03-31T10:03:23.665Z,57.86
2023-03-31T10:06:52.775Z,58.40
2023-03-31T10:10:01.589Z,57.21
2023-03-31T10:13:11.641Z,58.84
2023-03-31T10:16:24.437Z,60.62
2023-03-31T10:19:09.620Z,59.90
2023-03-31T10:21:38.763Z,60.97
2023-03-31T10:24:53.645Z,59.95
2023-03-31T10:27:52.210Z,59.74
2023-03-31T10:31:03.651Z,59.82
2023-03-31T10:33:45.113Z,60.79
2023-03-31T10:36:36.184Z,60.85
2023-03-31T10:39:07.738Z,60.92
2023-03-31T10:41:35.968Z,60.09
2023-03-31T10:44:37.864Z,59.99
2023-03-31T10:47:30.804Z,59.12
2023-03-31T10:50:22.674Z,58.33
2023-03-31T10:52:53.963Z,58.40
2023-03-31T10:55:59.847Z,57.48
2023-03-31T10:59:07.056Z,57.93
2023-03-31T11:02:01.134Z,57.85
2023-03-31T11:05:15.978Z,57.52
2023-03-31T11:09:13.292Z,56.69
2023-03-31T11:13:02.721Z,56.12
2023-03-31T11:16:16.322Z,56.65
2023-03-31T11:19:42.500Z,55.87
2023-03-31T11:22:39.486Z,53.68
2023-03-31T11:26:37.268Z,53.13
2023-03-31T11:30:21.390Z,51.32
2023-03-31T11:33:42.496Z,52.27
2023-03-31T11:37:21.943Z,53.26
2023-03-31T11:40:29.757Z,52.22
2023-03-31T11:44:02.665Z,51.37
2023-03-31T11:47:00.787Z,50.32
2023-03-31T11:50:44.926Z,50.71
2023-03-31T11:53:39.807Z,50.93
2023-03-31T11:56:49.365Z,51.47
2023-03-31T12:00:10.217Z,52.20
2023-03-31T12:03:16.908Z,52.87
2023-03-31T12:06:17.468Z,53.65
2023-03-31T12:09:40.290Z,53.44
2023-03-31T12:13:02.490Z,53.37
2023-03-31T12:16:46.329Z,52.77
2023-03-31T12:19:56.630Z,52.15
2023-03-31T12:22:39.387Z,52.30
2023-03-31T12:25:48.377Z,52.52
2023-03-31T12:29:26.714Z,52.45
2023-03-31T12:32:41.911Z,52.35
2023-03-31T12:35:44.315Z,51.76
2023-03-31T12:39:14.990Z,52.04
2023-03-31T12:43:18.584Z,51.28
2023-03-31T12:46:06.752Z,51.58
2023-03-31T12:49:23.392Z,51.72
2023-03-31T12:52:27.922Z,51.12
2023-03-31T12:56:14.312Z,50.95
2023-03-31T12:59:28.589Z,50.17
2023-03-31T13:02:23.173Z,49.85
2023-03-31T13:05:40.483Z,50.17
2023-03-31T13:09:12.336Z,50.15
2023-03-31T13:11:47.949Z,50.52
2023-03-31T13:14:45.669Z,50.68
2023-03-31T13:18:55.414Z,50.34
2023-03-31T13:23:04.490Z,50.20
2023-03-31T13:26:27.369Z,49.82
2023-03-31T13:30:16.099Z,50.76
2023-03-31T13:34:12.645Z,51.70
2023-03-31T13:38:17.749Z,51.72
2023-03-31T13:41:48.536Z,52.39
2023-03-31T13:45:37.169Z,52.22
2023-03-31T13:49:19.500Z,52.40
2023-03-31T13:53:07.536Z,52.30
2023-03-31T13:57:04.593Z,52.18
2023-03-31T14:00:22.064Z,52.41
2023-03-31T14:04:10.232Z,53.74
2023-03-31T14:07:21.384Z,54.29
2023-03-31T14:09:57.092Z,54.68
2023-03-31T14:13:18.989Z,54.84
2023-03-31T14:16:16.719Z,54.79
2023-03-31T14:19:49.378Z,54.86
2023-03-31T14:23:06.497Z,54.91
2023-03-31T14:26:17.813Z,54.89
2023-03-31T14:29:43.390Z,55.16
2023-03-31T14:33:04.176Z,55.36
2023-03-31T14:36:11.849Z,55.40
2023-03-31T14:39:58.348Z,55.01
2023-03-31T14:43:40.329Z,55.39
2023-03-31T14:46:12.093Z,55.25
2023-03-31T14:49:14.962Z,55.40
2023-03-31T14:52:00.696Z,55.45
2023-03-31T14:54:38.601Z,55.71
2023-03-31T14:57:56.162Z,55.62
2023-03-31T15:00:35.886Z,55.98
2023-03-31T15:03:50.875Z,56.08
2023-03-31T15:06:39.997Z,56.01
2023-03-31T15:09:33.335Z,56.35
2023-03-31T15:12:07.859Z,56.07
2023-03-31T15:14:49.962Z,56.27
2023-03-31T15:17:57.217Z,56.33
2023-03-31T15:20:38.944Z,56.35
2023-03-31T15:23:46.397Z,56.50
2023-03-31T15:26:42.996Z,56.51
2023-03-31T15:30:19.457Z,56.73
2023-03-31T15:36:05.005Z,56.73
2023-03-31T15:38:33.246Z,56.97
2023-03-31T15:41:01.738Z,56.85
2023-03-31T15:43:58.485Z,56.98
2023-03-31T15:46:56.416Z,57.18
2023-03-31T15:49:56.560Z,57.18
2023-03-31T15:53:09.626Z,57.15
2023-03-31T15:58:53.474Z,57.33
2023-03-31T16:01:52.255Z,57.49
2023-03-31T16:04:44.118Z,57.61
2023-03-31T16:07:22.496Z,58.12
2023-03-31T16:10:33.400Z,58.34
2023-03-31T16:13:45.038Z,58.27
2023-03-31T16:16:55.162Z,58.33
2023-03-31T16:20:25.705Z,58.79
2023-03-31T16:23:25.995Z,59.68
2023-03-31T16:25:56.962Z,59.33
2023-03-31T16:29:05.913Z,59.85
2023-03-31T16:31:41.820Z,59.75
2023-03-31T16:34:11.249Z,59.63
2023-03-31T16:37:20.867Z,59.88
2023-03-31T16:40:35.188Z,59.98
2023-03-31T16:43:30.649Z,60.10
2023-03-31T16:46:43.520Z,60.43
2023-03-31T16:50:12.676Z,60.65
2023-03-31T16:52:47.318Z,61.00
2023-03-31T16:55:38.434Z,61.13
2023-03-31T16:58:47.643Z,61.47
2023-03-31T17:01:19.318Z,62.59
2023-03-31T17:04:03.080Z,69.50
2023-03-31T17:06:33.734Z,69.18
2023-03-31T17:09:02.315Z,68.28
2023-03-31T17:11:50.724Z,64.41
2023-03-31T17:14:39.746Z,63.88
2023-03-31T17:18:11.052Z,58.98
2023-03-31T17:21:53.743Z,56.69
2023-03-31T17:25:36.252Z,57.64
2023-03-31T17:28:38.672Z,58.74
2023-03-31T17:31:32.494Z,59.10
2023-03-31T17:34:01.590Z,60.79
2023-03-31T17:37:08.090Z,60.88
2023-03-31T17:41:17.782Z,61.03
2023-03-31T17:44:18.345Z,61.82
2023-03-31T17:48:28.139Z,65.91
2023-03-31T17:51:59.430Z,65.09
2023-03-31T17:55:14.960Z,62.65
2023-03-31T17:57:56.733Z,61.22
2023-03-31T18:00:25.499Z,59.53
2023-03-31T18:03:17.029Z,57.09
2023-03-31T18:06:33.341Z,56.23
2023-03-31T18:09:06.071Z,57.12
2023-03-31T18:11:37.807Z,58.76
2023-03-31T18:15:10.985Z,60.36
2023-03-31T18:17:43.380Z,61.25
2023-03-31T18:21:32.772Z,63.46
2023-03-31T18:24:03.830Z,62.87
2023-03-31T18:26:32.366Z,62.66
2023-03-31T18:29:03.462Z,60.70
2023-03-31T18:31:34.787Z,59.35
2023-03-31T18:34:29.123Z,57.20
2023-03-31T18:37:20.957Z,57.58
2023-03-31T18:39:52.497Z,57.62
2023-03-31T18:42:28.270Z,58.73
2023-03-31T18:45:19.980Z,60.02
2023-03-31T18:47:48.281Z,59.98
2023-03-31T18:50:20.065Z,60.87
2023-03-31T18:52:54.872Z,62.23
2023-03-31T18:56:01.899Z,65.72
2023-03-31T18:58:32.642Z,64.69
2023-03-31T19:01:24.380Z,63.03
2023-03-31T19:03:52.742Z,62.60
2023-03-31T19:06:22.544Z,61.17
2023-03-31T19:08:55.587Z,59.57
2023-03-31T19:11:32.986Z,57.01
2023-03-31T19:14:21.608Z,57.65
2023-03-31T19:16:55.372Z,58.26
2023-03-31T19:19:50.266Z,60.21
2023-03-31T19:22:19.209Z,59.65
2023-03-31T19:24:53.122Z,60.80
2023-03-31T19:27:30.279Z,62.21
2023-03-31T19:29:58.584Z,65.10
2023-03-31T19:32:29.999Z,65.32
2023-03-31T19:35:29.459Z,63.58
2023-03-31T19:38:00.382Z,60.18
2023-03-31T19:40:28.588Z,58.24
2023-03-31T19:42:57.045Z,59.13
2023-03-31T19:45:46.460Z,58.89
2023-03-31T19:48:30.332Z,60.06
2023-03-31T19:51:27.954Z,61.95
2023-03-31T19:53:58.748Z,64.89
2023-03-31T19:56:57.504Z,66.09
2023-03-31T19:59:26.213Z,63.90
2023-03-31T20:02:44.072Z,62.85
2023-03-31T20:05:12.558Z,61.26
2023-03-31T20:07:48.882Z,58.67
2023-03-31T20:10:21.275Z,58.36
2023-03-31T20:13:25.237Z,58.97
2023-03-31T20:16:02.178Z,60.68
2023-03-31T20:19:16.445Z,62.08
2023-03-31T20:21:58.210Z,65.87
2023-03-31T20:24:35.771Z,66.35
2023-03-31T20:27:24.939Z,64.79
2023-03-31T20:30:03.692Z,62.97
2023-03-31T20:32:32.304Z,62.45
2023-03-31T20:35:07.195Z,60.80
2023-03-31T20:37:38.475Z,61.71
2023-03-31T20:40:32.944Z,61.48
2023-03-31T20:43:52.842Z,61.90
2023-03-31T20:46:30.594Z,62.01
2023-03-31T20:49:40.272Z,59.81
2023-03-31T20:52:11.478Z,58.78
2023-03-31T20:55:02.890Z,59.37
2023-03-31T20:57:54.153Z,61.66
2023-03-31T21:00:36.001Z,67.01
2023-03-31T21:03:25.149Z,66.78
2023-03-31T21:06:52.000Z,66.04
2023-03-31T21:10:04.664Z,64.50
2023-03-31T21:12:33.844Z,63.26
2023-03-31T21:15:25.157Z,62.42
2023-03-31T21:19:09.318Z,61.71
2023-03-31T21:21:53.718Z,62.25
2023-03-31T21:25:22.373Z,62.34
2023-03-31T21:28:43.300Z,60.70
2023-03-31T21:32:25.771Z,61.36
2023-03-31T21:35:13.336Z,61.45
2023-03-31T21:38:11.660Z,60.77
2023-03-31T21:41:56.846Z,60.10
2023-03-31T21:45:08.860Z,60.45
2023-03-31T21:47:50.510Z,60.27
2023-03-31T21:50:18.997Z,59.93
2023-03-31T21:52:50.497Z,58.46
2023-03-31T21:55:28.054Z,58.49
2023-03-31T21:57:59.883Z,59.40
2023-03-31T22:00:28.144Z,61.62
2023-03-31T22:03:27.216Z,65.54
2023-03-31T22:05:56.802Z,65.90
2023-03-31T22:08:27.045Z,64.72
2023-03-31T22:10:56.185Z,62.69
2023-03-31T22:13:34.525Z,62.29
2023-03-31T22:16:23.171Z,62.57
2023-03-31T22:18:51.631Z,61.78
2023-03-31T22:21:36.144Z,62.38
2023-03-31T22:24:04.361Z,61.20
2023-03-31T22:26:32.577Z,61.27
2023-03-31T22:29:00.686Z,60.67
2023-03-31T22:31:29.345Z,59.50
2023-03-31T22:34:19.565Z,59.29
2023-03-31T22:36:47.627Z,60.59
2023-03-31T22:39:16.421Z,61.17
2023-03-31T22:41:48.656Z,65.05
2023-03-31T22:44:16.952Z,65.67
2023-03-31T22:46:48.428Z,64.55
2023-03-31T22:49:16.855Z,64.56
2023-03-31T22:51:45.299Z,63.43
2023-03-31T22:54:16.724Z,62.31
2023-03-31T22:56:45.437Z,62.46
2023-03-31T22:59:17.410Z,62.10
2023-03-31T23:01:47.088Z,61.07
2023-03-31T23:04:15.528Z,61.28
2023-03-31T23:06:44.042Z,61.33
2023-03-31T23:09:12.315Z,61.12
2023-03-31T23:11:41.089Z,60.71
2023-03-31T23:14:13.306Z,59.66
2023-03-31T23:16:43.939Z,58.94
2023-03-31T23:19:12.387Z,61.39
2023-03-31T23:21:40.764Z,64.11
2023-03-31T23:24:09.983Z,64.60
2023-03-31T23:26:38.150Z,64.31
2023-03-31T23:29:11.839Z,63.58
2023-03-31T23:32:24.305Z,62.38
2023-03-31T23:34:52.587Z,62.20
2023-03-31T23:37:20.793Z,62.06
2023-03-31T23:39:49.252Z,62.12
2023-03-31T23:42:20.933Z,61.36
2023-03-31T23:44:49.072Z,61.21
2023-03-31T23:47:19.760Z,61.33
2023-03-31T23:49:48.247Z,61.25
2023-03-31T23:52:16.835Z,60.83
2023-03-31T23:54:48.017Z,61.47
2023-03-31T23:57:27.450Z,61.09
2023-03-31T23:59:58.461Z,60.85
